Time;durP1;ratioP1;P1;durP2;ratioP2;P2;SDS_P1;SDS_P2;PMS_P1;PMS_P2;Temp;Humidity;BMP_temperature;BMP_pressure;BME280_temperature;BME280_humidity;BME280_pressure;Samples;Min_cycle;Max_cycle;Signal;HPM_P1;HPM_P2
2022/10/06 00:00:48;;;;;;;6.00;4.97;;;;;;;7.99;84.52;95512.63;1710416;84;21248;-49
2022/10/06 00:03:15;;;;;;;7.00;4.92;;;;;;;8.00;84.96;95514.19;1710088;84;21043;-50
2022/10/06 00:05:42;;;;;;;6.87;5.47;;;;;;;8.03;85.22;95502.43;1710143;84;20976;-50
2022/10/06 00:08:10;;;;;;;5.92;5.33;;;;;;;8.07;85.26;95512.73;1722669;82;21004;-50
2022/10/06 00:10:36;;;;;;;7.15;5.47;;;;;;;8.10;85.27;95511.91;1726322;82;21015;-49
2022/10/06 00:13:03;;;;;;;9.20;6.78;;;;;;;8.12;85.12;95503.47;1708143;83;21217;-51
2022/10/06 00:15:31;;;;;;;6.72;6.08;;;;;;;8.15;85.08;95502.64;1708064;83;20951;-50
2022/10/06 00:17:57;;;;;;;5.78;5.17;;;;;;;8.18;84.90;95499.09;1726704;82;21059;-50
2022/10/06 00:20:25;;;;;;;8.50;5.97;;;;;;;8.19;84.87;95502.59;1712731;82;21050;-50
2022/10/06 00:22:52;;;;;;;10.23;6.12;;;;;;;8.21;84.81;95499.64;1710303;83;20963;-50
2022/10/06 00:25:22;;;;;;;5.62;4.90;;;;;;;8.24;84.71;95490.58;1710160;84;21241;-50
2022/10/06 00:27:50;;;;;;;10.45;7.53;;;;;;;8.28;84.45;95484.45;1710345;84;21499;-49
2022/10/06 00:30:26;;;;;;;7.17;6.28;;;;;;;8.33;84.13;95479.09;1710182;83;21027;-49
2022/10/06 00:32:58;;;;;;;8.10;6.28;;;;;;;8.38;83.94;95476.67;1710602;83;20965;-49
2022/10/06 00:35:26;;;;;;;7.92;5.60;;;;;;;8.42;83.78;95475.25;1709724;84;21482;-49
2022/10/06 00:37:54;;;;;;;12.37;8.70;;;;;;;8.45;83.62;95477.16;1708504;82;21158;-49
2022/10/06 00:40:22;;;;;;;16.45;10.72;;;;;;;8.46;83.33;95476.73;1699090;84;21356;-50
2022/10/06 00:42:58;;;;;;;12.07;8.05;;;;;;;8.47;83.11;95486.50;1698783;82;21523;-50
2022/10/06 00:45:42;;;;;;;8.73;6.78;;;;;;;8.52;82.83;95469.60;1698661;83;21152;-49
2022/10/06 00:48:14;;;;;;;7.67;5.97;;;;;;;8.54;82.65;95469.95;1697728;84;21367;-49
2022/10/06 00:50:41;;;;;;;8.25;5.67;;;;;;;8.54;82.40;95467.22;1699267;84;21286;-49
2022/10/06 00:53:10;;;;;;;6.50;4.87;;;;;;;8.55;82.20;95463.28;1698957;83;21503;-48
2022/10/06 00:55:37;;;;;;;6.17;5.00;;;;;;;8.54;82.07;95454.88;1698906;82;21019;-48
2022/10/06 00:58:04;;;;;;;7.37;5.58;;;;;;;8.53;82.08;95456.06;1698613;84;21468;-50
2022/10/06 01:00:30;;;;;;;7.85;5.75;;;;;;;8.51;81.97;95455.72;1698797;83;21098;-49
2022/10/06 01:03:01;;;;;;;9.78;6.20;;;;;;;8.50;82.02;95456.12;1698875;84;21234;-49
2022/10/06 01:05:34;;;;;;;16.00;6.97;;;;;;;8.48;82.10;95462.62;1699071;84;21423;-50
2022/10/06 01:08:01;;;;;;;8.40;6.17;;;;;;;8.43;82.17;95457.00;1698859;82;20983;-50
2022/10/06 01:10:28;;;;;;;12.30;7.12;;;;;;;8.39;82.26;95465.88;1698925;83;21045;-49
2022/10/06 01:12:54;;;;;;;8.43;6.83;;;;;;;8.36;82.47;95462.61;1670834;83;21003;-49
2022/10/06 01:15:24;;;;;;;8.65;6.00;;;;;;;8.30;82.45;95462.12;1698931;84;21340;-49
2022/10/06 01:17:56;;;;;;;11.57;6.47;;;;;;;8.27;82.80;95462.34;1699078;84;20951;-49
2022/10/06 01:20:23;;;;;;;8.13;6.05;;;;;;;8.29;82.78;95460.56;1698668;82;21336;-49
2022/10/06 01:22:58;;;;;;;11.57;6.42;;;;;;;8.28;82.81;95465.26;1698963;84;21008;-49
2022/10/06 01:25:25;;;;;;;9.85;6.47;;;;;;;8.28;82.82;95455.66;1699021;83;21053;-48
2022/10/06 01:27:54;;;;;;;7.67;6.33;;;;;;;8.23;82.62;95456.14;1699120;83;21249;-52
2022/10/06 01:30:29;;;;;;;6.03;5.08;;;;;;;8.19;82.86;95462.28;1698744;84;21297;-48
2022/10/06 01:32:55;;;;;;;8.68;5.55;;;;;;;8.20;82.90;95455.61;1708780;82;21035;-49
2022/10/06 01:35:23;;;;;;;7.33;6.62;;;;;;;8.18;82.82;95450.34;1708798;84;21035;-49
2022/10/06 01:37:50;;;;;;;5.78;5.20;;;;;;;8.18;82.86;95451.72;1708561;84;21086;-49
2022/10/06 01:40:18;;;;;;;7.83;6.40;;;;;;;8.19;82.61;95447.78;1699157;84;21993;-49
2022/10/06 01:42:45;;;;;;;9.28;6.40;;;;;;;8.20;82.39;95452.86;1699341;84;21526;-49
2022/10/06 01:45:12;;;;;;;7.55;4.80;;;;;;;8.21;82.19;95450.30;1734490;82;20963;-49
2022/10/06 01:47:40;;;;;;;5.25;4.60;;;;;;;8.26;81.88;95455.30;1736874;81;20998;-49
2022/10/06 01:50:07;;;;;;;5.50;5.00;;;;;;;8.28;81.50;95459.02;1736925;82;21073;-50
2022/10/06 01:52:35;;;;;;;10.08;5.30;;;;;;;8.25;81.28;95456.50;1736591;82;21302;-50
2022/10/06 01:55:03;;;;;;;7.42;4.47;;;;;;;8.20;81.27;95453.45;1736527;82;21101;-50
2022/10/06 01:57:30;;;;;;;6.45;4.90;;;;;;;8.14;81.44;95453.13;1710253;84;21023;-48
2022/10/06 01:59:57;;;;;;;5.53;5.03;;;;;;;8.10;81.33;95451.63;1710330;84;21008;-49
2022/10/06 02:02:24;;;;;;;5.65;4.20;;;;;;;8.05;81.47;95448.74;1710238;84;21208;-49
2022/10/06 02:04:52;;;;;;;5.87;4.67;;;;;;;8.05;81.75;95446.00;1692302;84;21161;-49
2022/10/06 02:07:19;;;;;;;6.50;4.58;;;;;;;8.07;81.98;95449.72;1709972;82;21067;-49
2022/10/06 02:09:46;;;;;;;5.33;4.75;;;;;;;8.09;82.35;95450.83;1710462;84;21579;-49
2022/10/06 02:12:14;;;;;;;9.35;5.25;;;;;;;8.14;82.61;95448.23;1692102;84;20987;-49
2022/10/06 02:14:41;;;;;;;12.28;8.23;;;;;;;8.16;82.64;95449.95;1669164;84;21003;-49
2022/10/06 02:17:10;;;;;;;12.55;6.20;;;;;;;8.22;82.34;95447.73;1710257;84;20989;-49
2022/10/06 02:19:39;;;;;;;5.80;4.92;;;;;;;8.26;81.93;95449.06;1713874;82;21466;-50
2022/10/06 02:22:05;;;;;;;6.12;4.40;;;;;;;8.27;81.70;95452.74;1736784;82;21022;-49
2022/10/06 02:24:33;;;;;;;18.15;8.28;;;;;;;8.27;81.58;95462.34;1736880;82;20998;-49
2022/10/06 02:27:00;;;;;;;16.27;7.80;;;;;;;8.23;81.51;95450.66;1736857;82;20951;-49
2022/10/06 02:29:27;;;;;;;13.75;8.03;;;;;;;8.21;81.53;95453.66;1729408;82;21538;-49
2022/10/06 02:31:56;;;;;;;21.20;7.65;;;;;;;8.16;81.58;95455.44;1725803;82;21019;-49
2022/10/06 02:34:23;;;;;;;10.90;5.97;;;;;;;8.11;81.65;95450.43;1698744;83;21061;-48
2022/10/06 02:36:51;;;;;;;9.73;6.60;;;;;;;8.08;81.83;95449.28;1698932;83;20983;-49
2022/10/06 02:39:18;;;;;;;8.83;6.17;;;;;;;8.02;81.85;95444.09;1698839;82;21023;-49
2022/10/06 02:41:45;;;;;;;6.37;5.35;;;;;;;8.00;81.99;95451.16;1699237;83;21875;-49
2022/10/06 02:44:14;;;;;;;14.28;5.65;;;;;;;7.92;82.12;95449.12;1702970;82;21016;-49
2022/10/06 02:46:42;;;;;;;7.72;4.42;;;;;;;7.82;82.31;95455.53;1710161;83;21012;-49
2022/10/06 02:49:09;;;;;;;9.38;4.50;;;;;;;7.74;82.44;95455.43;1709989;83;21007;-48
2022/10/06 02:51:36;;;;;;;7.72;4.25;;;;;;;7.69;82.75;95442.81;1710137;84;21047;-50
2022/10/06 02:54:02;;;;;;;4.75;4.25;;;;;;;7.64;83.11;95435.83;1710242;83;21164;-49
2022/10/06 02:56:29;;;;;;;5.80;4.00;;;;;;;7.61;83.16;95446.23;1722248;82;21494;-48
2022/10/06 02:58:56;;;;;;;5.95;4.60;;;;;;;7.55;83.33;95445.12;1717955;82;21008;-49
2022/10/06 03:01:27;;;;;;;9.98;4.28;;;;;;;7.50;83.59;95442.08;1703244;83;21637;-49
2022/10/06 03:03:55;;;;;;;7.37;4.22;;;;;;;7.46;83.81;95443.48;1634442;87;21335;-50
2022/10/06 03:06:27;;;;;;;6.03;4.25;;;;;;;7.40;83.92;95450.61;1711143;83;21959;-51
2022/10/06 03:08:59;;;;;;;6.10;4.28;;;;;;;7.39;84.35;95455.11;1701817;83;21040;-50
2022/10/06 03:11:31;;;;;;;12.23;4.08;;;;;;;7.38;84.47;95457.06;1701107;84;21523;-50
2022/10/06 03:13:59;;;;;;;5.93;4.17;;;;;;;7.36;84.66;95458.06;1701321;83;21682;-50
2022/10/06 03:16:37;;;;;;;8.10;4.15;;;;;;;7.36;84.70;95458.06;1700906;84;21071;-48
2022/10/06 03:19:06;;;;;;;9.23;4.17;;;;;;;7.35;84.62;95464.72;1701126;84;21477;-49
2022/10/06 03:21:35;;;;;;;6.37;4.55;;;;;;;7.34;84.83;95461.05;1709344;83;20961;-51
2022/10/06 03:24:03;;;;;;;17.17;4.67;;;;;;;7.37;85.18;95458.25;1711462;83;20984;-49
2022/10/06 03:26:41;;;;;;;7.55;4.40;;;;;;;7.40;85.01;95465.66;1711212;83;21051;-50
2022/10/06 03:29:10;;;;;;;5.50;4.10;;;;;;;7.40;84.91;95469.77;1682664;84;21072;-48
2022/10/06 03:31:39;;;;;;;4.30;3.90;;;;;;;7.38;84.81;95465.27;1629700;87;21197;-49
2022/10/06 03:34:06;;;;;;;16.87;4.87;;;;;;;7.35;84.69;95473.55;1628155;87;21056;-50
2022/10/06 03:36:33;;;;;;;7.37;4.40;;;;;;;7.29;84.72;95473.79;1624314;87;21089;-49
2022/10/06 03:39:03;;;;;;;13.65;4.25;;;;;;;7.25;84.93;95471.11;1624026;87;21140;-49
2022/10/06 03:41:32;;;;;;;9.70;4.75;;;;;;;7.21;85.15;95477.22;1624521;88;20966;-49
2022/10/06 03:44:02;;;;;;;5.95;4.28;;;;;;;7.15;85.24;95473.36;1624484;87;21105;-49
2022/10/06 03:46:34;;;;;;;11.38;4.65;;;;;;;7.13;85.53;95471.63;1624110;87;21056;-49
2022/10/06 03:49:01;;;;;;;5.92;3.62;;;;;;;7.13;85.56;95477.09;1681007;84;21015;-49
2022/10/06 03:51:36;;;;;;;4.47;4.08;;;;;;;7.14;85.61;95480.02;1680622;84;22267;-49
2022/10/06 03:54:04;;;;;;;12.13;4.72;;;;;;;7.13;85.68;95483.17;1680781;85;21492;-50
2022/10/06 03:56:34;;;;;;;8.78;4.65;;;;;;;7.10;85.99;95487.49;1680778;85;22302;-50
2022/10/06 03:59:04;;;;;;;8.05;4.80;;;;;;;7.10;86.27;95483.97;1689301;83;20975;-48
2022/10/06 04:01:39;;;;;;;7.65;4.45;;;;;;;7.11;86.53;95484.15;1693425;84;21026;-49
2022/10/06 04:04:08;;;;;;;7.50;4.22;;;;;;;7.15;86.70;95478.83;1693488;83;21054;-50
2022/10/06 04:06:39;;;;;;;6.55;4.53;;;;;;;7.21;86.81;95486.80;1673763;84;21031;-49
2022/10/06 04:09:11;;;;;;;6.20;4.33;;;;;;;7.27;86.88;95482.42;1693415;84;21000;-50
2022/10/06 04:11:38;;;;;;;5.55;4.92;;;;;;;7.33;86.80;95484.89;1693434;84;21007;-50
2022/10/06 04:14:09;;;;;;;9.10;4.60;;;;;;;7.34;86.54;95487.80;1693360;83;21018;-50
2022/10/06 04:16:42;;;;;;;4.62;4.22;;;;;;;7.32;86.55;95485.31;1692810;83;21602;-50
2022/10/06 04:19:11;;;;;;;5.00;4.60;;;;;;;7.35;86.72;95484.49;1693467;84;21074;-48
2022/10/06 04:21:42;;;;;;;5.90;5.30;;;;;;;7.41;86.59;95487.75;1693599;83;21259;-50
2022/10/06 04:24:10;;;;;;;104.17;40.88;;;;;;;7.50;86.71;95488.02;1693211;84;21019;-50
2022/10/06 04:26:48;;;;;;;57.23;26.50;;;;;;;7.59;86.56;95486.94;1693104;84;21049;-50
2022/10/06 04:29:13;;;;;;;24.10;10.15;;;;;;;7.68;86.33;95488.58;1692253;83;21030;-49
2022/10/06 04:31:41;;;;;;;8.25;6.53;;;;;;;7.74;86.01;95483.42;1693418;83;21028;-50
2022/10/06 04:34:12;;;;;;;9.28;5.00;;;;;;;7.79;85.66;95493.34;1692822;84;21154;-49
2022/10/06 04:36:40;;;;;;;5.33;4.40;;;;;;;7.87;85.45;95485.20;1673493;84;21083;-50
2022/10/06 04:39:11;;;;;;;5.50;4.90;;;;;;;7.91;85.13;95496.12;1674039;83;21436;-51
2022/10/06 04:41:46;;;;;;;6.78;4.65;;;;;;;7.92;84.94;95492.95;1693700;83;21067;-51
2022/10/06 04:44:11;;;;;;;13.75;5.03;;;;;;;7.95;84.75;95492.16;1693267;84;20991;-52
2022/10/06 04:46:39;;;;;;;7.53;4.80;;;;;;;7.98;84.22;95494.06;1693879;84;21169;-51
2022/10/06 04:49:08;;;;;;;11.38;4.72;;;;;;;8.02;84.03;95490.67;1673917;84;21023;-51
2022/10/06 04:51:36;;;;;;;5.17;4.75;;;;;;;8.07;83.87;95490.20;1693460;83;21066;-50
2022/10/06 04:54:03;;;;;;;6.72;5.25;;;;;;;8.09;83.72;95489.80;1693359;84;21074;-50
2022/10/06 04:56:32;;;;;;;10.28;5.85;;;;;;;8.12;83.64;95493.88;1693469;83;21034;-49
2022/10/06 04:59:01;;;;;;;9.10;5.95;;;;;;;8.15;83.53;95490.30;1696154;84;21907;-49
2022/10/06 05:01:32;;;;;;;9.80;5.10;;;;;;;8.18;83.39;95493.61;1648715;84;21015;-49
2022/10/06 05:04:01;;;;;;;10.38;5.22;;;;;;;8.21;83.05;95489.28;1699024;84;20979;-50
2022/10/06 05:06:37;;;;;;;7.55;4.15;;;;;;;8.22;83.08;95501.80;1699228;83;21950;-49
2022/10/06 05:09:11;;;;;;;6.35;5.70;;;;;;;8.21;82.94;95500.25;1698854;83;21069;-51
2022/10/06 05:11:40;;;;;;;9.15;6.10;;;;;;;8.17;83.18;95492.03;1698980;84;21779;-49
2022/10/06 05:14:08;;;;;;;9.05;5.47;;;;;;;8.19;83.42;95502.02;1649398;84;21470;-50
2022/10/06 05:16:37;;;;;;;6.35;5.75;;;;;;;8.25;83.54;95509.95;1698834;83;21079;-51
2022/10/06 05:19:07;;;;;;;6.67;5.15;;;;;;;8.31;83.47;95500.09;1671326;84;21561;-51
2022/10/06 05:21:35;;;;;;;8.28;5.60;;;;;;;8.38;83.22;95510.94;1671629;84;21065;-50
2022/10/06 05:24:02;;;;;;;6.83;5.53;;;;;;;8.45;83.12;95509.45;1709470;82;21099;-51
2022/10/06 05:26:31;;;;;;;9.33;6.72;;;;;;;8.54;82.87;95514.42;1699193;83;20991;-49
2022/10/06 05:28:58;;;;;;;16.00;7.58;;;;;;;8.59;82.62;95516.09;1699055;83;21018;-50
2022/10/06 05:31:28;;;;;;;12.37;7.70;;;;;;;8.65;82.44;95516.41;1698608;83;21101;-50
2022/10/06 05:33:56;;;;;;;11.68;6.05;;;;;;;8.70;82.33;95520.84;1699268;84;20990;-51
2022/10/06 05:36:25;;;;;;;11.40;5.53;;;;;;;8.78;82.16;95521.50;1670577;84;22328;-50
2022/10/06 05:38:53;;;;;;;32.30;24.87;;;;;;;8.87;81.96;95523.89;1698987;83;21020;-51
2022/10/06 05:41:25;;;;;;;17.57;11.03;;;;;;;8.94;81.81;95524.55;1680731;82;21090;-52
2022/10/06 05:43:52;;;;;;;22.77;10.38;;;;;;;9.01;81.43;95526.37;1706122;82;21085;-54
2022/10/06 05:46:23;;;;;;;9.23;7.20;;;;;;;9.06;80.79;95524.55;1719748;82;21133;-50
2022/10/06 05:48:55;;;;;;;10.85;7.00;;;;;;;9.12;80.56;95525.61;1676335;84;21230;-53
2022/10/06 05:51:51;;;;;;;25.55;7.85;;;;;;;9.21;80.33;95524.48;1718632;82;21086;-52
2022/10/06 05:54:20;;;;;;;12.33;8.33;;;;;;;9.30;80.22;95521.95;1692729;82;21069;-49
2022/10/06 05:56:48;;;;;;;8.20;5.70;;;;;;;9.40;79.31;95523.75;1709546;81;21072;-50
2022/10/06 05:59:16;;;;;;;13.32;8.35;;;;;;;9.50;78.81;95537.28;1679486;82;21046;-54
2022/10/06 06:01:43;;;;;;;10.00;6.10;;;;;;;9.59;78.81;95529.86;1711966;82;21122;-58
2022/10/06 06:04:12;;;;;;;10.00;6.30;;;;;;;9.68;78.93;95542.42;1724686;83;21023;-54
2022/10/06 06:06:44;;;;;;;;;;;;;;;9.76;78.85;95532.87;1714452;82;21652;-51
2022/10/06 06:09:19;;;;;;;19.82;10.15;;;;;;;9.84;78.42;95537.02;1716856;82;20171;-51
2022/10/06 06:11:51;;;;;;;8.53;6.37;;;;;;;9.90;78.46;95539.44;1704372;82;21077;-51
2022/10/06 06:15:59;;;;;;;7.37;6.40;;;;;;;10.01;77.62;95535.88;1720588;82;21105;-52
2022/10/06 06:16:53;;;;;;;16.27;6.25;;;;;;;10.12;76.79;95536.45;1700757;82;21047;-50
2022/10/06 06:19:21;;;;;;;13.78;7.12;;;;;;;10.23;76.50;95538.39;1708345;82;21070;-50
2022/10/06 06:21:48;;;;;;;6.05;5.55;;;;;;;10.32;76.27;95537.23;1706023;82;21075;-53
2022/10/06 06:24:15;;;;;;;11.88;5.08;;;;;;;10.44;75.36;95546.17;1676242;84;21565;-54
2022/10/06 06:26:42;;;;;;;8.33;5.90;;;;;;;10.58;74.67;95534.86;1711790;82;21267;-51
2022/10/06 06:29:09;;;;;;;8.20;6.35;;;;;;;10.73;73.79;95544.52;1724592;82;20987;-52
2022/10/06 06:31:39;;;;;;;5.60;5.10;;;;;;;10.85;73.59;95549.94;1710610;82;21054;-56
2022/10/06 06:34:08;;;;;;;8.90;5.87;;;;;;;10.95;72.84;95559.33;1662340;82;21113;-50
2022/10/06 06:36:42;;;;;;;6.37;5.65;;;;;;;11.03;72.82;95552.46;1675713;82;20988;-52
2022/10/06 06:39:12;;;;;;;7.70;6.67;;;;;;;11.09;72.42;95549.35;1702370;82;21874;-51
2022/10/06 06:41:47;;;;;;;14.07;8.25;;;;;;;11.19;72.23;95551.67;1705505;82;21525;-49
2022/10/06 06:44:16;;;;;;;9.23;4.50;;;;;;;11.28;71.79;95555.37;1673849;82;21568;-51
2022/10/06 06:46:48;;;;;;;7.37;4.85;;;;;;;11.41;71.02;95558.98;1711027;82;21003;-51
2022/10/06 06:49:17;;;;;;;8.53;5.37;;;;;;;11.55;70.22;95554.45;1711960;82;21003;-51
2022/10/06 06:51:49;;;;;;;11.80;5.40;;;;;;;11.69;70.58;95549.98;1700181;82;22284;-52
2022/10/06 06:54:19;;;;;;;10.48;4.40;;;;;;;11.82;70.26;95552.79;1720528;82;21007;-54
2022/10/06 06:56:48;;;;;;;9.88;4.90;;;;;;;11.94;69.41;95559.73;1711622;81;21074;-53
2022/10/06 06:59:17;;;;;;;9.83;5.08;;;;;;;12.07;69.20;95558.41;1715274;82;21160;-51
2022/10/06 07:01:47;;;;;;;11.45;5.47;;;;;;;12.18;68.32;95557.48;1681798;83;21065;-53
2022/10/06 07:04:16;;;;;;;13.08;4.78;;;;;;;12.27;67.96;95554.26;1707810;83;21136;-53
2022/10/06 07:06:55;;;;;;;11.88;3.95;;;;;;;12.36;66.94;95545.34;1698992;83;21105;-55
2022/10/06 07:09:13;;;;;;;8.23;4.47;;;;;;;12.44;66.74;95543.31;1696830;83;21016;-52
2022/10/06 07:11:41;;;;;;;8.80;4.08;;;;;;;12.53;66.66;95557.84;1676628;83;21045;-52
2022/10/06 07:14:11;;;;;;;7.17;3.90;;;;;;;12.60;66.22;95561.16;1718866;81;21568;-53
2022/10/06 07:25:24;;;;;;;5.28;3.45;;;;;;;12.96;65.00;95558.89;1682698;83;21084;-53
2022/10/06 07:27:53;;;;;;;10.93;3.20;;;;;;;13.06;64.19;95556.41;1700996;83;21034;-53
2022/10/06 07:30:26;;;;;;;3.85;3.45;;;;;;;13.16;64.10;95553.91;1694113;83;21680;-55
2022/10/06 07:33:03;;;;;;;12.90;5.72;;;;;;;13.27;63.54;95551.58;1717504;83;21106;-51
2022/10/06 07:35:32;;;;;;;5.97;4.22;;;;;;;13.39;63.07;95555.70;1685144;83;21419;-51
2022/10/06 07:38:06;;;;;;;8.60;5.50;;;;;;;13.49;62.78;95558.70;1694659;83;21049;-53
2022/10/06 07:40:32;;;;;;;28.87;13.05;;;;;;;13.61;62.37;95559.91;1704652;83;21046;-53
2022/10/06 07:43:01;;;;;;;21.35;8.28;;;;;;;13.70;62.38;95572.43;1698951;83;21318;-52
2022/10/06 07:45:43;;;;;;;15.85;9.73;;;;;;;13.80;62.05;95561.62;1679055;83;22313;-55
2022/10/06 07:48:22;;;;;;;21.65;12.85;;;;;;;13.86;62.08;95559.82;1698045;83;21142;-55
2022/10/06 07:50:54;;;;;;;45.28;27.42;;;;;;;13.93;62.28;95560.95;1698265;83;21003;-55
2022/10/06 07:53:41;;;;;;;14.20;8.13;;;;;;;13.99;61.75;95559.17;1684234;83;21557;-52
2022/10/06 07:56:14;;;;;;;13.35;5.78;;;;;;;14.09;61.60;95562.16;1704495;83;22412;-53
2022/10/06 07:58:43;;;;;;;21.77;11.48;;;;;;;14.19;61.14;95559.66;1703220;83;21068;-52
2022/10/06 08:01:12;;;;;;;18.05;4.97;;;;;;;14.28;60.85;95563.86;1701902;83;21509;-52
2022/10/06 08:03:40;;;;;;;5.25;3.22;;;;;;;14.35;60.54;95565.77;1696003;82;22380;-51
2022/10/06 08:06:14;;;;;;;27.10;4.22;;;;;;;14.43;59.40;95573.20;1680760;82;21358;-52
2022/10/06 08:08:39;;;;;;;;;;;;;;;14.48;59.62;95567.23;1707994;82;21293;-53
2022/10/06 08:11:06;;;;;;;5.28;3.00;;;;;;;14.59;59.00;95566.23;1707626;82;20202;-49
2022/10/06 08:13:40;;;;;;;5.50;3.00;;;;;;;14.69;59.02;95565.06;1702969;83;20957;-51
2022/10/06 08:16:16;;;;;;;12.03;8.35;;;;;;;14.79;58.73;95563.12;1677240;84;21053;-52
2022/10/06 08:18:52;;;;;;;4.83;2.80;;;;;;;14.92;58.50;95564.56;1695991;82;21571;-53
2022/10/06 08:21:23;;;;;;;5.55;3.20;;;;;;;15.01;57.07;95564.58;1700283;82;22872;-53
2022/10/06 08:23:52;;;;;;;11.70;3.27;;;;;;;15.08;57.33;95561.55;1696148;82;21011;-55
2022/10/06 08:26:20;;;;;;;7.22;2.65;;;;;;;15.17;57.71;95558.80;1678993;81;21144;-55
2022/10/06 08:28:50;;;;;;;6.03;3.58;;;;;;;15.28;56.74;95571.63;1713688;81;21081;-53
2022/10/06 08:31:20;;;;;;;9.18;3.65;;;;;;;15.40;56.46;95562.44;1695291;82;20998;-53
2022/10/06 08:33:48;;;;;;;11.18;3.08;;;;;;;15.52;55.89;95558.78;1729871;82;21320;-55
2022/10/06 08:36:19;;;;;;;12.00;3.17;;;;;;;15.65;55.48;95562.20;1725580;81;21068;-52
2022/10/06 08:38:49;;;;;;;8.40;3.35;;;;;;;15.71;54.93;95564.52;1698083;82;21071;-57
2022/10/06 08:41:47;;;;;;;3.27;2.50;;;;;;;15.77;55.00;95557.11;1662741;84;21006;-55
2022/10/06 08:44:40;;;;;;;4.33;2.77;;;;;;;15.89;54.57;95556.21;1672113;84;21527;-50
2022/10/06 08:47:21;;;;;;;16.30;3.30;;;;;;;16.05;54.45;95555.13;1660511;84;21152;-52
2022/10/06 08:49:50;;;;;;;9.53;2.98;;;;;;;16.19;54.17;95549.75;1664945;84;21600;-54
2022/10/06 08:52:47;;;;;;;8.95;3.30;;;;;;;16.36;53.75;95552.39;1660715;84;21131;-51
2022/10/06 08:55:31;;;;;;;3.33;2.52;;;;;;;16.53;54.15;95552.21;1661110;84;21169;-53
2022/10/06 08:58:15;;;;;;;8.63;3.17;;;;;;;16.78;52.14;95546.27;1687320;82;21465;-53
2022/10/06 09:00:42;;;;;;;3.65;2.80;;;;;;;16.91;52.11;95552.42;1704101;82;21125;-57
2022/10/06 09:03:22;;;;;;;6.60;3.05;;;;;;;17.03;51.93;95547.26;1731262;82;21015;-54
2022/10/06 09:05:52;;;;;;;5.67;2.65;;;;;;;17.16;51.82;95548.62;1673143;82;21143;-53
2022/10/06 09:08:50;;;;;;;10.30;2.98;;;;;;;17.27;51.07;95549.49;1715523;82;21126;-53
2022/10/06 09:11:34;;;;;;;11.18;2.85;;;;;;;17.40;50.80;95541.71;1710410;82;21073;-52
2022/10/06 09:14:07;;;;;;;4.72;2.85;;;;;;;17.64;50.43;95542.52;1706913;82;22384;-52
2022/10/06 09:16:36;;;;;;;6.00;2.37;;;;;;;17.95;49.40;95537.33;1701292;84;22013;-52
2022/10/06 09:19:27;;;;;;;6.97;2.20;;;;;;;18.18;49.08;95538.70;1725396;82;21053;-53
2022/10/06 09:21:54;;;;;;;6.12;2.17;;;;;;;18.35;48.51;95538.43;1691259;82;21076;-51
2022/10/06 09:24:38;;;;;;;8.95;2.10;;;;;;;18.52;47.67;95536.11;1619160;85;21129;-53
2022/10/06 09:27:22;;;;;;;15.43;2.47;;;;;;;18.64;46.99;95529.47;1698338;82;21482;-53
2022/10/06 09:29:50;;;;;;;8.55;2.55;;;;;;;18.78;47.08;95541.25;1711254;81;21555;-54
2022/10/06 09:32:19;;;;;;;8.70;2.42;;;;;;;18.92;46.77;95532.13;1708117;81;20999;-53
2022/10/06 09:34:50;;;;;;;6.78;2.67;;;;;;;19.11;46.68;95532.66;1700871;83;21071;-55
2022/10/06 09:37:18;;;;;;;13.95;3.12;;;;;;;19.39;46.37;95536.05;1707809;82;21045;-57
2022/10/06 09:39:48;;;;;;;7.85;2.58;;;;;;;19.80;45.40;95529.29;1698022;83;21229;-56
2022/10/06 09:42:34;;;;;;;13.10;2.80;;;;;;;20.19;44.20;95531.97;1671674;82;21012;-56
2022/10/06 09:45:24;;;;;;;5.72;2.75;;;;;;;20.54;43.76;95531.97;1703172;81;21110;-53
2022/10/06 09:47:52;;;;;;;16.60;2.67;;;;;;;20.95;42.22;95539.00;1706921;82;21099;-51
2022/10/06 09:50:26;;;;;;;14.03;2.33;;;;;;;21.54;41.62;95528.02;1713334;82;21010;-54
2022/10/06 09:53:03;;;;;;;3.67;1.70;;;;;;;21.95;40.87;95533.50;1714441;82;21896;-51
2022/10/06 09:55:39;;;;;;;12.30;1.87;;;;;;;22.42;39.95;95531.44;1697119;82;21504;-51
2022/10/06 09:58:30;;;;;;;14.35;2.10;;;;;;;22.87;39.55;95521.08;1695049;84;21143;-51
2022/10/06 10:01:01;;;;;;;8.43;2.47;;;;;;;23.19;37.95;95523.17;1674639;83;28590;-53
2022/10/06 10:03:52;;;;;;;3.25;1.72;;;;;;;23.60;37.56;95518.53;1722092;82;21098;-55
2022/10/06 10:06:30;;;;;;;8.68;1.75;;;;;;;23.94;36.71;95520.67;1673385;84;21154;-54
2022/10/06 10:09:28;;;;;;;11.33;1.90;;;;;;;24.17;36.18;95515.88;1697772;82;21023;-53
2022/10/06 10:12:29;;;;;;;9.55;5.03;;;;;;;24.26;35.87;95506.50;1681736;84;21087;-53
2022/10/06 10:15:05;;;;;;;5.87;3.70;;;;;;;24.49;36.04;95508.55;1694971;82;21028;-52
2022/10/06 10:17:40;;;;;;;7.78;2.42;;;;;;;25.03;34.87;95504.66;1699129;82;20960;-55
2022/10/06 10:20:27;;;;;;;21.33;3.45;;;;;;;25.51;34.48;95506.19;1722135;82;21252;-53
2022/10/06 10:22:57;;;;;;;7.03;2.10;;;;;;;25.94;33.29;95513.47;1709856;82;21503;-54
2022/10/06 10:26:07;;;;;;;11.03;2.37;;;;;;;26.21;33.13;95505.35;1683515;82;21083;-51
2022/10/06 10:28:53;;;;;;;6.20;1.85;;;;;;;26.45;32.28;95499.66;1724647;83;21059;-53
2022/10/06 10:31:40;;;;;;;7.90;1.70;;;;;;;26.71;31.45;95500.49;1722705;82;21113;-52
2022/10/06 10:34:37;;;;;;;4.15;1.10;;;;;;;26.79;31.73;95495.74;1723486;83;21465;-52
2022/10/06 10:37:18;;;;;;;5.40;1.30;;;;;;;27.01;30.88;95493.36;1720901;82;20999;-55
2022/10/06 10:39:51;;;;;;;10.75;5.12;;;;;;;27.37;30.26;95495.28;1693785;83;21527;-55
2022/10/06 10:42:31;;;;;;;9.20;2.30;;;;;;;27.59;30.80;95488.56;1695501;84;21063;-54
2022/10/06 10:45:00;;;;;;;3.55;1.30;;;;;;;27.98;30.33;95495.71;1708256;83;21056;-53
2022/10/06 10:47:36;;;;;;;6.20;1.62;;;;;;;28.31;29.59;95492.27;1661712;84;22373;-53
2022/10/06 10:50:12;;;;;;;14.40;2.02;;;;;;;28.52;28.80;95489.63;1650596;85;21740;-55
2022/10/06 10:52:41;;;;;;;4.28;1.60;;;;;;;28.61;28.63;95488.42;1659022;85;21066;-56
2022/10/06 10:55:35;;;;;;;13.35;1.57;;;;;;;28.65;28.11;95490.25;1662496;86;21797;-54
2022/10/06 10:58:19;;;;;;;13.85;1.55;;;;;;;28.71;28.10;95480.97;1714730;82;21010;-51
2022/10/06 11:00:50;;;;;;;2.80;0.98;;;;;;;28.77;27.99;95490.13;1705367;83;21999;-54
2022/10/06 11:03:17;;;;;;;8.23;1.92;;;;;;;28.80;27.83;95481.27;1724148;82;21119;-54
2022/10/06 11:06:04;;;;;;;9.65;1.40;;;;;;;28.88;27.92;95478.52;1722871;82;21147;-54
2022/10/06 11:09:01;;;;;;;3.98;1.10;;;;;;;29.00;27.72;95481.25;1704586;82;21101;-53
2022/10/06 11:11:56;;;;;;;3.15;1.15;;;;;;;29.05;27.47;95481.77;1651133;82;21086;-53
2022/10/06 11:14:58;;;;;;;13.25;1.52;;;;;;;29.24;27.01;95480.92;1723498;82;21164;-56
2022/10/06 11:17:43;;;;;;;1.90;1.02;;;;;;;29.43;26.55;95477.22;1726174;82;21454;-56
2022/10/06 11:20:42;;;;;;;4.40;1.12;;;;;;;29.60;25.88;95471.92;1715312;82;21069;-56
2022/10/06 11:23:53;;;;;;;5.75;1.37;;;;;;;29.77;26.68;95478.70;1711666;82;21046;-56
2022/10/06 11:26:56;;;;;;;2.60;1.60;;;;;;;30.23;26.40;95465.70;1718521;82;21637;-56
2022/10/06 11:30:00;;;;;;;0.80;0.80;;;;;;;30.48;25.04;95471.70;1711747;82;21305;-54
2022/10/06 11:32:35;;;;;;;2.50;0.82;;;;;;;30.63;24.09;95470.36;1720694;82;21062;-56
2022/10/06 11:35:25;;;;;;;2.37;1.50;;;;;;;30.89;23.18;95470.84;1726368;82;21076;-54
2022/10/06 11:38:06;;;;;;;10.75;2.62;;;;;;;31.38;23.50;95466.35;1724029;82;21047;-56
2022/10/06 11:41:12;;;;;;;5.42;1.70;;;;;;;32.10;21.73;95465.41;1690910;82;21071;-53
2022/10/06 11:44:02;;;;;;;2.95;1.72;;;;;;;32.19;20.19;95457.06;1712258;82;21058;-55
2022/10/06 11:46:46;;;;;;;7.00;1.45;;;;;;;31.72;20.75;95461.84;1726308;82;21054;-55
2022/10/06 11:49:38;;;;;;;4.25;1.67;;;;;;;31.30;21.36;95457.03;1726796;82;21828;-52
2022/10/06 11:52:10;;;;;;;6.97;1.72;;;;;;;31.16;21.60;95460.72;1708275;82;22201;-52
2022/10/06 11:54:53;;;;;;;6.12;1.60;;;;;;;30.73;22.24;95457.92;1707922;82;21022;-53
2022/10/06 11:57:28;;;;;;;10.80;6.20;;;;;;;30.60;22.75;95459.47;1727447;82;21485;-54
2022/10/06 12:00:17;;;;;;;7.72;6.67;;;;;;;30.85;22.73;95456.91;1707947;82;21024;-53
2022/10/06 12:02:45;;;;;;;3.50;1.60;;;;;;;31.09;23.10;95454.30;1711145;82;21078;-56
2022/10/06 12:05:18;;;;;;;3.70;1.72;;;;;;;31.06;21.99;95455.44;1724376;82;21010;-54
2022/10/06 12:07:58;;;;;;;10.03;3.12;;;;;;;31.00;22.05;95452.02;1719649;82;21379;-54
2022/10/06 12:10:32;;;;;;;6.33;2.17;;;;;;;31.08;22.00;95452.78;1697689;82;21892;-57